createdAt,value
2023-01-08T00:02:05.528Z,6.20
2023-01-08T00:04:34.675Z,8.90
2023-01-08T00:07:02.694Z,6.28
2023-01-08T00:09:30.846Z,6.53
2023-01-08T00:11:58.722Z,6.72
2023-01-08T00:14:26.802Z,6.78
2023-01-08T00:16:54.949Z,5.60
2023-01-08T00:19:22.783Z,5.80
2023-01-08T00:21:52.315Z,6.18
2023-01-08T00:24:20.935Z,6.65
2023-01-08T00:26:48.777Z,6.70
2023-01-08T00:29:16.987Z,6.15
2023-01-08T00:31:45.351Z,6.15
2023-01-08T00:34:13.252Z,6.40
2023-01-08T00:36:41.156Z,6.25
2023-01-08T00:39:10.500Z,5.82
2023-01-08T00:41:38.354Z,6.35
2023-01-08T00:44:06.572Z,5.43
2023-01-08T00:46:34.416Z,5.82
2023-01-08T00:49:02.664Z,6.22
2023-01-08T00:51:30.723Z,6.88
2023-01-08T00:53:58.843Z,7.20
2023-01-08T00:56:28.314Z,7.22
2023-01-08T00:58:56.851Z,7.03
2023-01-08T01:01:25.017Z,6.00
2023-01-08T01:03:52.958Z,8.35
2023-01-08T01:06:20.970Z,6.10
2023-01-08T01:08:49.001Z,7.78
2023-01-08T01:11:20.477Z,6.28
2023-01-08T01:13:50.300Z,5.97
2023-01-08T01:16:18.667Z,6.90
2023-01-08T01:18:46.522Z,6.53
2023-01-08T01:21:18.967Z,6.10
2023-01-08T01:23:46.760Z,6.03
2023-01-08T01:26:19.114Z,5.78
2023-01-08T01:28:51.504Z,5.88
2023-01-08T01:31:21.161Z,6.15
2023-01-08T01:33:49.601Z,5.47
2023-01-08T01:36:19.226Z,6.72
2023-01-08T01:38:48.262Z,5.32
2023-01-08T01:41:24.541Z,6.20
2023-01-08T01:43:54.651Z,5.45
2023-01-08T01:46:29.419Z,6.00
2023-01-08T01:49:01.734Z,6.10
2023-01-08T01:51:33.728Z,5.88
2023-01-08T01:54:03.534Z,7.40
2023-01-08T01:56:33.145Z,5.65
2023-01-08T01:59:02.776Z,4.82
2023-01-08T02:01:32.225Z,5.70
2023-01-08T02:04:00.280Z,5.28
2023-01-08T02:06:38.370Z,6.35
2023-01-08T02:09:15.569Z,6.00
2023-01-08T02:12:09.818Z,5.80
2023-01-08T02:14:45.352Z,5.97
2023-01-08T02:17:18.953Z,5.68
2023-01-08T02:19:52.319Z,5.85
2023-01-08T02:22:29.539Z,5.35
2023-01-08T02:25:03.312Z,5.78
2023-01-08T02:27:35.224Z,5.18
2023-01-08T02:30:06.883Z,4.72
2023-01-08T02:32:38.757Z,5.68
2023-01-08T02:35:08.186Z,5.60
2023-01-08T02:37:36.724Z,6.00
2023-01-08T02:40:12.483Z,6.22
2023-01-08T02:42:48.869Z,5.75
2023-01-08T02:45:36.806Z,5.50
2023-01-08T02:48:11.132Z,5.50
2023-01-08T02:50:42.662Z,5.22
2023-01-08T02:53:15.538Z,5.40
2023-01-08T02:55:48.158Z,6.30
2023-01-08T02:58:18.336Z,6.00
2023-01-08T03:00:47.887Z,5.32
2023-01-08T03:03:19.408Z,6.10
2023-01-08T03:05:50.579Z,6.13
2023-01-08T03:08:20.122Z,6.20
2023-01-08T03:10:52.670Z,6.13
2023-01-08T03:13:28.215Z,5.80
2023-01-08T03:16:00.217Z,7.10
2023-01-08T03:18:34.297Z,5.97
2023-01-08T03:21:03.263Z,6.03
2023-01-08T03:23:33.897Z,6.35
2023-01-08T03:26:02.909Z,6.80
2023-01-08T03:28:36.748Z,6.90
2023-01-08T03:31:06.149Z,5.53
2023-01-08T03:33:35.264Z,6.53
2023-01-08T03:36:06.144Z,5.72
2023-01-08T03:38:37.953Z,7.00
2023-01-08T03:41:10.251Z,5.30
2023-01-08T03:43:39.605Z,5.93
2023-01-08T03:46:12.933Z,5.60
2023-01-08T03:48:42.403Z,5.63
2023-01-08T03:51:11.009Z,6.60
2023-01-08T03:53:39.165Z,14.90
2023-01-08T03:56:07.899Z,9.55
2023-01-08T03:58:35.878Z,6.25
2023-01-08T04:01:05.231Z,5.45
2023-01-08T04:03:33.080Z,6.10
2023-01-08T04:06:01.046Z,7.07
2023-01-08T04:08:28.817Z,6.75
2023-01-08T04:10:56.745Z,6.05
2023-01-08T04:13:24.646Z,6.18
2023-01-08T04:15:53.185Z,5.85
2023-01-08T04:18:22.496Z,5.97
2023-01-08T04:20:50.414Z,5.88
2023-01-08T04:23:18.268Z,5.78
2023-01-08T04:25:46.127Z,6.00
2023-01-08T04:28:14.117Z,5.57
2023-01-08T04:30:42.163Z,8.18
2023-01-08T04:33:10.070Z,8.35
2023-01-08T04:35:39.253Z,6.18
2023-01-08T04:38:07.228Z,10.13
2023-01-08T04:40:35.599Z,8.95
2023-01-08T04:43:03.527Z,6.82
2023-01-08T04:45:31.482Z,7.97
2023-01-08T04:48:00.381Z,6.00
2023-01-08T04:50:28.751Z,8.32
2023-01-08T04:53:00.382Z,6.65
2023-01-08T04:55:28.242Z,6.57
2023-01-08T04:57:56.177Z,6.20
2023-01-08T05:00:23.989Z,6.13
2023-01-08T05:02:51.948Z,6.53
2023-01-08T05:05:20.001Z,4.78
2023-01-08T05:07:47.881Z,5.95
2023-01-08T05:10:17.382Z,5.20
2023-01-08T05:12:45.183Z,6.50
2023-01-08T05:15:13.311Z,6.60
2023-01-08T05:17:41.277Z,6.20
2023-01-08T05:20:10.608Z,5.88
2023-01-08T05:22:38.442Z,5.97
2023-01-08T05:25:07.106Z,6.68
2023-01-08T05:27:36.452Z,6.70
2023-01-08T05:30:04.535Z,6.97
2023-01-08T05:32:32.534Z,6.32
2023-01-08T05:35:00.564Z,6.70
2023-01-08T05:37:28.561Z,7.25
2023-01-08T05:39:56.329Z,5.95
2023-01-08T05:42:24.138Z,6.85
2023-01-08T05:44:53.413Z,6.88
2023-01-08T05:47:21.297Z,6.65
2023-01-08T05:49:49.321Z,8.00
2023-01-08T05:52:17.290Z,6.78
2023-01-08T05:54:45.135Z,8.85
2023-01-08T05:57:13.317Z,8.18
2023-01-08T05:59:41.191Z,10.10
2023-01-08T06:02:10.765Z,8.30
2023-01-08T06:04:38.931Z,11.48
2023-01-08T06:07:06.771Z,11.98
2023-01-08T06:09:34.596Z,10.00
2023-01-08T06:12:02.373Z,13.40
2023-01-08T06:14:30.228Z,10.63
2023-01-08T06:16:58.120Z,11.13
2023-01-08T06:19:27.792Z,10.45
2023-01-08T06:21:55.993Z,10.90
2023-01-08T06:24:24.035Z,10.02
2023-01-08T06:26:52.081Z,10.38
2023-01-08T06:29:20.296Z,8.82
2023-01-08T06:31:48.461Z,10.40
2023-01-08T06:34:16.860Z,10.45
2023-01-08T06:36:46.140Z,10.15
2023-01-08T06:39:15.256Z,9.63
2023-01-08T06:41:43.980Z,10.55
2023-01-08T06:44:11.917Z,10.15
2023-01-08T06:46:40.557Z,8.93
2023-01-08T06:49:08.989Z,9.20
2023-01-08T06:51:37.554Z,10.38
2023-01-08T06:54:07.104Z,9.02
2023-01-08T06:56:45.487Z,10.32
2023-01-08T06:59:16.932Z,9.27
2023-01-08T07:01:45.028Z,9.15
2023-01-08T07:04:12.989Z,9.02
2023-01-08T07:06:40.882Z,9.00
2023-01-08T07:09:13.029Z,8.35
2023-01-08T07:11:41.115Z,9.70
2023-01-08T07:14:09.500Z,9.07
2023-01-08T07:16:37.545Z,11.60
2023-01-08T07:19:05.686Z,10.73
2023-01-08T07:21:33.589Z,9.85
2023-01-08T07:24:01.513Z,12.32
2023-01-08T07:26:30.710Z,9.10
2023-01-08T07:28:58.682Z,9.45
2023-01-08T07:31:26.652Z,8.55
2023-01-08T07:33:54.561Z,8.93
2023-01-08T07:36:22.422Z,8.07
2023-01-08T07:38:50.570Z,12.82
2023-01-08T07:41:19.551Z,10.23
2023-01-08T07:43:49.797Z,8.65
2023-01-08T07:48:45.571Z,8.80
2023-01-08T07:51:13.579Z,11.18
2023-01-08T07:53:41.518Z,11.70
2023-01-08T07:56:11.600Z,9.82
2023-01-08T07:58:39.829Z,8.30
2023-01-08T08:01:12.226Z,8.80
2023-01-08T08:03:40.729Z,11.23
2023-01-08T08:06:09.236Z,8.90
2023-01-08T08:08:37.304Z,9.80
2023-01-08T08:11:05.625Z,9.38
2023-01-08T08:13:33.500Z,8.70
2023-01-08T08:16:05.286Z,9.48
2023-01-08T08:18:34.570Z,8.80
2023-01-08T08:21:02.445Z,8.85
2023-01-08T08:23:30.472Z,8.45
2023-01-08T08:25:58.584Z,8.18
2023-01-08T08:28:26.578Z,7.20
2023-01-08T08:30:54.449Z,7.22
2023-01-08T08:33:22.401Z,7.70
2023-01-08T08:35:52.378Z,7.35
2023-01-08T08:38:23.173Z,7.03
2023-01-08T08:40:52.116Z,6.78
2023-01-08T08:43:20.443Z,6.80
2023-01-08T08:45:48.331Z,6.35
2023-01-08T08:48:17.109Z,6.55
2023-01-08T08:50:45.177Z,6.55
2023-01-08T08:53:14.380Z,5.75
2023-01-08T08:55:42.233Z,5.13
2023-01-08T08:58:11.752Z,5.25
2023-01-08T09:00:40.612Z,5.60
2023-01-08T09:03:12.216Z,6.63
2023-01-08T09:05:40.196Z,4.53
2023-01-08T09:08:08.122Z,4.55
2023-01-08T09:10:38.279Z,4.25
2023-01-08T09:13:06.383Z,4.32
2023-01-08T09:15:34.420Z,5.07
2023-01-08T09:18:02.340Z,4.22
2023-01-08T09:20:30.169Z,4.15
2023-01-08T09:23:00.563Z,3.70
2023-01-08T09:25:28.788Z,3.88
2023-01-08T09:28:02.417Z,4.50
2023-01-08T09:30:30.923Z,3.85
2023-01-08T09:33:02.313Z,7.45
2023-01-08T09:35:31.123Z,6.28
2023-01-08T09:37:59.500Z,3.55
2023-01-08T09:40:33.335Z,3.22
2023-01-08T09:43:06.212Z,3.50
2023-01-08T09:45:36.878Z,4.07
2023-01-08T09:48:08.745Z,3.53
2023-01-08T09:50:37.719Z,3.00
2023-01-08T09:53:05.557Z,3.15
2023-01-08T09:55:35.373Z,2.80
2023-01-08T09:58:04.680Z,2.63
2023-01-08T10:00:35.675Z,2.30
2023-01-08T10:03:03.697Z,2.80
2023-01-08T10:05:31.834Z,2.30
2023-01-08T10:07:59.795Z,2.90
2023-01-08T10:10:30.788Z,3.03
2023-01-08T10:12:59.616Z,2.65
2023-01-08T10:15:29.053Z,2.60
2023-01-08T10:18:03.279Z,1.95
2023-01-08T10:20:32.349Z,2.70
2023-01-08T10:23:11.885Z,2.33
2023-01-08T10:25:52.443Z,1.73
2023-01-08T10:28:23.600Z,1.75
2023-01-08T10:30:54.708Z,2.38
2023-01-08T10:33:26.822Z,2.10
2023-01-08T10:35:59.024Z,1.98
2023-01-08T10:38:33.769Z,1.88
2023-01-08T10:41:04.463Z,1.85
2023-01-08T10:43:36.351Z,1.48
2023-01-08T10:46:08.925Z,1.95
2023-01-08T10:48:39.909Z,1.92
2023-01-08T10:51:15.843Z,1.95
2023-01-08T10:53:44.135Z,1.40
2023-01-08T10:56:22.207Z,2.00
2023-01-08T10:58:51.423Z,1.90
2023-01-08T11:01:26.003Z,1.80
2023-01-08T11:03:57.941Z,1.98
2023-01-08T11:06:29.199Z,1.65
2023-01-08T11:09:01.594Z,1.52
2023-01-08T11:11:34.243Z,1.48
2023-01-08T11:14:04.640Z,2.13
2023-01-08T11:16:36.269Z,3.20
2023-01-08T11:19:05.221Z,1.65
2023-01-08T11:21:36.118Z,2.20
2023-01-08T11:24:18.121Z,1.52
2023-01-08T11:26:52.541Z,2.10
2023-01-08T11:29:25.679Z,1.40
2023-01-08T11:32:01.636Z,1.02
2023-01-08T11:34:34.988Z,2.53
2023-01-08T11:37:08.855Z,4.32
2023-01-08T11:39:39.799Z,1.15
2023-01-08T11:42:45.444Z,2.33
2023-01-08T11:45:23.105Z,2.35
2023-01-08T11:48:14.626Z,1.80
2023-01-08T11:50:55.428Z,3.00
2023-01-08T11:53:30.619Z,1.75
2023-01-08T11:56:12.247Z,3.53
2023-01-08T11:58:55.620Z,3.15
2023-01-08T12:01:43.876Z,4.47
2023-01-08T12:04:32.574Z,2.85
2023-01-08T12:07:09.884Z,4.43
2023-01-08T12:09:42.830Z,4.95
2023-01-08T12:12:20.362Z,5.72
2023-01-08T12:14:59.645Z,5.18
2023-01-08T12:17:40.310Z,4.53
2023-01-08T12:20:21.411Z,5.13
2023-01-08T12:23:03.361Z,3.97
2023-01-08T12:26:01.209Z,3.38
2023-01-08T12:29:03.739Z,4.20
2023-01-08T12:32:05.677Z,4.93
2023-01-08T12:34:43.058Z,3.75
2023-01-08T12:37:16.434Z,6.38
2023-01-08T12:39:51.425Z,3.15
2023-01-08T12:42:24.595Z,2.88
2023-01-08T12:44:55.441Z,1.35
2023-01-08T12:47:28.529Z,3.22
2023-01-08T12:50:06.168Z,2.22
2023-01-08T12:52:43.300Z,1.25
2023-01-08T12:55:22.370Z,3.13
2023-01-08T12:57:57.811Z,2.50
2023-01-08T13:00:32.715Z,1.85
2023-01-08T13:03:03.137Z,1.90
2023-01-08T13:05:34.566Z,2.45
2023-01-08T13:08:06.741Z,3.08
2023-01-08T13:10:38.900Z,1.92
2023-01-08T13:13:08.317Z,3.03
2023-01-08T13:15:37.644Z,2.85
2023-01-08T13:18:16.860Z,4.07
2023-01-08T13:20:56.141Z,6.55
2023-01-08T13:23:27.661Z,1.95
2023-01-08T13:25:57.594Z,2.05
2023-01-08T13:28:31.615Z,0.82
2023-01-08T13:31:10.753Z,1.92
2023-01-08T13:33:41.855Z,1.13
2023-01-08T13:36:32.088Z,1.20
2023-01-08T13:39:04.652Z,1.35
2023-01-08T13:41:34.304Z,3.88
2023-01-08T13:44:06.158Z,1.30
2023-01-08T13:46:37.950Z,1.10
2023-01-08T13:49:07.932Z,2.42
2023-01-08T13:51:43.356Z,2.60
2023-01-08T13:54:22.016Z,1.30
2023-01-08T13:56:54.846Z,2.35
2023-01-08T13:59:35.355Z,1.83
2023-01-08T14:02:03.761Z,1.27
2023-01-08T14:04:31.603Z,2.53
2023-01-08T14:07:15.468Z,1.35
2023-01-08T14:09:44.695Z,1.73
2023-01-08T14:12:15.681Z,2.58
2023-01-08T14:14:48.592Z,2.63
2023-01-08T14:17:18.260Z,1.70
2023-01-08T14:19:46.891Z,1.90
2023-01-08T14:22:20.501Z,1.83
2023-01-08T14:24:55.420Z,1.30
2023-01-08T14:27:25.937Z,1.83
2023-01-08T14:29:54.324Z,2.15
2023-01-08T14:32:24.185Z,1.65
2023-01-08T14:34:54.073Z,1.30
2023-01-08T14:37:21.988Z,1.27
2023-01-08T14:39:54.504Z,1.40
2023-01-08T14:42:44.499Z,1.10
2023-01-08T14:45:19.648Z,1.33
2023-01-08T14:47:49.743Z,1.85
2023-01-08T14:50:24.793Z,1.67
2023-01-08T14:52:53.959Z,1.90
2023-01-08T14:55:23.624Z,1.40
2023-01-08T14:57:55.502Z,2.97
2023-01-08T15:00:26.365Z,2.47
2023-01-08T15:02:54.343Z,2.28
2023-01-08T15:05:27.859Z,1.88
2023-01-08T15:07:59.730Z,7.90
2023-01-08T15:10:38.364Z,4.80
2023-01-08T15:13:08.539Z,2.08
2023-01-08T15:18:09.003Z,3.97
2023-01-08T15:20:37.618Z,1.70
2023-01-08T15:23:05.649Z,2.53
2023-01-08T15:25:35.003Z,1.35
2023-01-08T15:28:04.640Z,2.23
2023-01-08T15:30:37.295Z,1.92
2023-01-08T15:33:10.281Z,2.47
2023-01-08T15:35:38.167Z,3.17
2023-01-08T15:38:08.848Z,2.50
2023-01-08T15:40:38.159Z,4.47
2023-01-08T15:43:10.729Z,8.27
2023-01-08T15:45:39.952Z,6.40
2023-01-08T15:48:08.643Z,7.88
2023-01-08T15:50:38.890Z,10.02
2023-01-08T15:55:36.508Z,12.88
2023-01-08T15:58:05.918Z,8.02
2023-01-08T16:00:34.063Z,6.87
2023-01-08T16:03:03.239Z,3.90
2023-01-08T16:05:32.887Z,3.47
2023-01-08T16:08:01.086Z,5.53
2023-01-08T16:10:29.256Z,4.55
2023-01-08T16:12:57.676Z,8.55
2023-01-08T16:15:28.033Z,2.60
2023-01-08T16:17:56.082Z,2.63
2023-01-08T16:20:23.953Z,2.55
2023-01-08T16:22:52.099Z,3.67
2023-01-08T16:25:20.284Z,3.10
2023-01-08T16:27:48.133Z,4.05
2023-01-08T16:30:16.585Z,2.75
2023-01-08T16:32:47.476Z,3.40
2023-01-08T16:35:15.399Z,2.47
2023-01-08T16:37:43.230Z,2.53
2023-01-08T16:40:12.229Z,2.00
2023-01-08T16:42:40.400Z,1.50
2023-01-08T16:45:09.610Z,2.45
2023-01-08T16:47:38.729Z,4.32
2023-01-08T16:50:11.528Z,3.38
2023-01-08T16:52:39.955Z,3.40
2023-01-08T16:55:10.474Z,4.35
2023-01-08T16:57:38.628Z,4.28
2023-01-08T17:00:08.360Z,5.40
2023-01-08T17:02:36.312Z,6.88
2023-01-08T17:05:04.291Z,3.20
2023-01-08T17:07:35.238Z,2.53
2023-01-08T17:10:03.190Z,2.33
2023-01-08T17:12:31.206Z,2.63
2023-01-08T17:14:59.102Z,4.32
2023-01-08T17:17:26.975Z,4.53
2023-01-08T17:19:54.998Z,5.75
2023-01-08T17:22:22.912Z,4.50
2023-01-08T17:24:52.430Z,3.45
2023-01-08T17:27:20.356Z,4.80
2023-01-08T17:29:48.298Z,3.95
2023-01-08T17:32:16.093Z,3.65
2023-01-08T17:34:43.994Z,4.38
2023-01-08T17:37:11.888Z,7.05
2023-01-08T17:39:39.789Z,4.90
2023-01-08T17:42:25.380Z,7.50
2023-01-08T17:44:53.482Z,5.72
2023-01-08T17:47:21.331Z,5.53
2023-01-08T17:49:50.368Z,5.45
2023-01-08T17:52:18.461Z,4.07
2023-01-08T17:54:48.041Z,2.13
2023-01-08T17:57:17.956Z,1.80
2023-01-08T17:59:46.068Z,2.88
2023-01-08T18:02:18.055Z,2.35
2023-01-08T18:04:46.436Z,2.13
2023-01-08T18:07:14.512Z,2.60
2023-01-08T18:09:42.524Z,2.90
2023-01-08T18:12:10.826Z,2.30
2023-01-08T18:14:41.442Z,2.53
2023-01-08T18:17:09.321Z,2.50
2023-01-08T18:19:37.267Z,3.00
2023-01-08T18:22:05.132Z,2.35
2023-01-08T18:24:34.343Z,2.30
2023-01-08T18:27:02.506Z,1.90
2023-01-08T18:29:30.710Z,4.15
2023-01-08T18:32:00.406Z,3.20
2023-01-08T18:34:28.456Z,3.55
2023-01-08T18:36:56.263Z,8.70
2023-01-08T18:39:26.590Z,3.92
2023-01-08T18:42:12.179Z,5.75
2023-01-08T18:44:40.012Z,4.05
2023-01-08T18:47:10.538Z,3.67
2023-01-08T18:49:38.632Z,3.13
2023-01-08T18:52:06.403Z,2.95
2023-01-08T18:54:35.396Z,3.17
2023-01-08T18:57:03.513Z,1.98
2023-01-08T18:59:31.491Z,3.90
2023-01-08T19:01:59.674Z,4.93
2023-01-08T19:04:29.333Z,5.20
2023-01-08T19:06:57.238Z,2.90
2023-01-08T19:09:25.227Z,3.25
2023-01-08T19:11:53.111Z,3.38
2023-01-08T19:14:21.039Z,2.00
2023-01-08T19:16:51.422Z,1.60
2023-01-08T19:19:19.503Z,1.80
2023-01-08T19:21:49.107Z,1.77
2023-01-08T19:24:16.941Z,1.60
2023-01-08T19:26:44.951Z,1.23
2023-01-08T19:29:13.480Z,1.23
2023-01-08T19:31:41.698Z,1.63
2023-01-08T19:34:11.575Z,1.00
2023-01-08T19:36:39.549Z,1.33
2023-01-08T19:39:11.208Z,1.40
2023-01-08T19:41:56.849Z,1.30
2023-01-08T19:44:24.891Z,1.38
2023-01-08T19:46:52.911Z,1.98
2023-01-08T19:49:20.878Z,2.20
2023-01-08T19:51:48.889Z,1.88
2023-01-08T19:54:18.920Z,2.15
2023-01-08T19:56:46.823Z,3.20
2023-01-08T19:59:14.679Z,2.47
2023-01-08T20:01:42.924Z,3.00
2023-01-08T20:04:11.574Z,2.35
2023-01-08T20:06:39.473Z,1.48
2023-01-08T20:09:09.045Z,1.42
2023-01-08T20:11:38.320Z,1.70
2023-01-08T20:14:06.221Z,2.03
2023-01-08T20:16:34.257Z,5.05
2023-01-08T20:19:04.499Z,2.25
2023-01-08T20:24:03.374Z,3.20
2023-01-08T20:26:32.778Z,3.38
2023-01-08T20:29:02.071Z,3.60
2023-01-08T20:31:31.284Z,3.08
2023-01-08T20:34:01.380Z,4.57
2023-01-08T20:36:32.407Z,3.53
2023-01-08T20:39:02.197Z,3.45
2023-01-08T20:41:30.571Z,4.30
2023-01-08T20:43:58.783Z,3.53
2023-01-08T20:46:30.292Z,3.28
2023-01-08T20:49:01.237Z,3.53
2023-01-08T20:51:29.306Z,4.78
2023-01-08T20:53:57.243Z,3.75
2023-01-08T20:56:25.033Z,7.65
2023-01-08T20:58:53.107Z,19.40
2023-01-08T21:01:23.240Z,11.60
2023-01-08T21:06:24.977Z,3.42
2023-01-08T21:08:55.311Z,11.30
2023-01-08T21:13:52.134Z,3.97
2023-01-08T21:16:23.359Z,3.30
2023-01-08T21:18:54.169Z,4.95
2023-01-08T21:21:24.162Z,6.60
2023-01-08T21:23:52.527Z,2.75
2023-01-08T21:26:20.581Z,2.80
2023-01-08T21:28:49.781Z,2.83
2023-01-08T21:31:19.247Z,5.32
2023-01-08T21:33:48.923Z,4.45
2023-01-08T21:36:20.045Z,8.40
2023-01-08T21:38:48.428Z,7.22
2023-01-08T21:41:32.390Z,5.65
2023-01-08T21:44:18.044Z,4.57
2023-01-08T21:46:46.562Z,3.58
2023-01-08T21:49:14.523Z,2.38
2023-01-08T21:52:01.617Z,2.63
2023-01-08T21:54:29.455Z,4.70
2023-01-08T21:56:57.484Z,2.40
2023-01-08T21:59:25.336Z,2.67
2023-01-08T22:01:53.307Z,2.50
2023-01-08T22:04:21.301Z,2.55
2023-01-08T22:06:50.565Z,3.40
2023-01-08T22:09:18.434Z,2.80
2023-01-08T22:11:46.705Z,4.43
2023-01-08T22:14:14.542Z,5.30
2023-01-08T22:16:42.572Z,4.70
2023-01-08T22:19:11.511Z,4.13
2023-01-08T22:21:39.873Z,3.08
2023-01-08T22:24:09.158Z,4.03
2023-01-08T22:26:37.200Z,3.53
2023-01-08T22:29:06.794Z,3.83
2023-01-08T22:31:35.487Z,5.28
2023-01-08T22:34:03.511Z,4.32
2023-01-08T22:36:31.467Z,4.75
2023-01-08T22:38:59.316Z,5.15
2023-01-08T22:41:28.557Z,6.00
2023-01-08T22:43:57.119Z,4.57
2023-01-08T22:46:26.277Z,4.57
2023-01-08T22:48:54.329Z,3.40
2023-01-08T22:51:22.571Z,4.75
2023-01-08T22:53:50.415Z,4.30
2023-01-08T22:56:18.609Z,4.25
2023-01-08T22:58:47.762Z,4.03
2023-01-08T23:01:18.092Z,4.47
2023-01-08T23:06:18.494Z,3.45
2023-01-08T23:08:46.789Z,6.70
2023-01-08T23:11:17.332Z,3.25
2023-01-08T23:13:45.483Z,4.70
2023-01-08T23:16:16.603Z,4.00
2023-01-08T23:18:45.025Z,5.40
2023-01-08T23:21:15.556Z,3.75
2023-01-08T23:23:43.840Z,4.32
2023-01-08T23:26:13.940Z,3.55
2023-01-08T23:28:41.827Z,4.10
2023-01-08T23:31:10.630Z,5.95
2023-01-08T23:33:40.003Z,3.47
2023-01-08T23:36:08.696Z,3.50
2023-01-08T23:38:36.737Z,2.72
2023-01-08T23:41:07.360Z,2.85
2023-01-08T23:43:35.365Z,2.60
2023-01-08T23:46:03.721Z,3.33
2023-01-08T23:48:31.942Z,3.17
2023-01-08T23:51:01.431Z,3.45
2023-01-08T23:53:29.526Z,2.80
2023-01-08T23:55:57.996Z,2.95
2023-01-08T23:58:26.557Z,2.88
